sensor_id;sensor_type;location;lat;lon;timestamp;P1;durP1;ratioP1;P2;durP2;ratioP2
60205;SDS011;46072;51.554;6.846;2022-07-23T00:01:26;25.15;;;12.02;;
60205;SDS011;46072;51.554;6.846;2022-07-23T00:03:55;25.67;;;11.88;;
60205;SDS011;46072;51.554;6.846;2022-07-23T00:06:22;21.73;;;11.48;;
60205;SDS011;46072;51.554;6.846;2022-07-23T00:08:49;23.13;;;12.55;;
60205;SDS011;46072;51.554;6.846;2022-07-23T00:11:16;26.13;;;12.88;;
60205;SDS011;46072;51.554;6.846;2022-07-23T00:13:42;28.67;;;12.77;;
60205;SDS011;46072;51.554;6.846;2022-07-23T00:16:09;26.25;;;13.65;;
60205;SDS011;46072;51.554;6.846;2022-07-23T00:18:35;24.40;;;12.93;;
60205;SDS011;46072;51.554;6.846;2022-07-23T00:21:02;20.73;;;11.68;;
60205;SDS011;46072;51.554;6.846;2022-07-23T00:23:28;24.02;;;12.90;;
60205;SDS011;46072;51.554;6.846;2022-07-23T00:25:56;29.40;;;14.27;;
60205;SDS011;46072;51.554;6.846;2022-07-23T00:28:23;24.23;;;12.57;;
60205;SDS011;46072;51.554;6.846;2022-07-23T00:30:50;27.38;;;13.75;;
60205;SDS011;46072;51.554;6.846;2022-07-23T00:33:17;31.80;;;13.88;;
60205;SDS011;46072;51.554;6.846;2022-07-23T00:35:43;27.15;;;14.23;;
60205;SDS011;46072;51.554;6.846;2022-07-23T00:38:10;33.95;;;14.23;;
60205;SDS011;46072;51.554;6.846;2022-07-23T00:40:37;28.95;;;16.20;;
60205;SDS011;46072;51.554;6.846;2022-07-23T00:43:05;28.30;;;13.65;;
60205;SDS011;46072;51.554;6.846;2022-07-23T00:45:31;22.17;;;12.35;;
60205;SDS011;46072;51.554;6.846;2022-07-23T00:47:58;23.77;;;12.95;;
60205;SDS011;46072;51.554;6.846;2022-07-23T00:50:25;24.73;;;12.90;;
60205;SDS011;46072;51.554;6.846;2022-07-23T00:52:52;29.65;;;14.27;;
60205;SDS011;46072;51.554;6.846;2022-07-23T00:55:19;25.02;;;12.43;;
60205;SDS011;46072;51.554;6.846;2022-07-23T00:57:46;25.35;;;13.07;;
60205;SDS011;46072;51.554;6.846;2022-07-23T01:00:13;25.17;;;13.48;;
60205;SDS011;46072;51.554;6.846;2022-07-23T01:02:40;27.65;;;14.55;;
60205;SDS011;46072;51.554;6.846;2022-07-23T01:05:07;29.10;;;14.82;;
60205;SDS011;46072;51.554;6.846;2022-07-23T01:07:34;27.05;;;14.30;;
60205;SDS011;46072;51.554;6.846;2022-07-23T01:10:01;27.20;;;14.63;;
60205;SDS011;46072;51.554;6.846;2022-07-23T01:12:28;30.98;;;15.00;;
60205;SDS011;46072;51.554;6.846;2022-07-23T01:14:56;31.92;;;15.23;;
60205;SDS011;46072;51.554;6.846;2022-07-23T01:17:23;29.55;;;14.98;;
60205;SDS011;46072;51.554;6.846;2022-07-23T01:19:50;30.42;;;14.82;;
60205;SDS011;46072;51.554;6.846;2022-07-23T01:22:18;32.80;;;15.52;;
60205;SDS011;46072;51.554;6.846;2022-07-23T01:24:45;29.15;;;14.73;;
60205;SDS011;46072;51.554;6.846;2022-07-23T01:27:12;31.75;;;14.65;;
60205;SDS011;46072;51.554;6.846;2022-07-23T01:29:44;29.08;;;14.68;;
60205;SDS011;46072;51.554;6.846;2022-07-23T01:32:10;29.00;;;14.57;;
60205;SDS011;46072;51.554;6.846;2022-07-23T01:34:37;24.38;;;13.63;;
60205;SDS011;46072;51.554;6.846;2022-07-23T01:37:03;25.70;;;14.50;;
60205;SDS011;46072;51.554;6.846;2022-07-23T01:39:30;26.08;;;13.73;;
60205;SDS011;46072;51.554;6.846;2022-07-23T01:41:58;28.77;;;14.27;;
60205;SDS011;46072;51.554;6.846;2022-07-23T01:44:24;32.42;;;14.50;;
60205;SDS011;46072;51.554;6.846;2022-07-23T01:46:51;29.88;;;14.27;;
60205;SDS011;46072;51.554;6.846;2022-07-23T01:49:17;32.33;;;14.45;;
60205;SDS011;46072;51.554;6.846;2022-07-23T01:51:44;30.25;;;13.57;;
60205;SDS011;46072;51.554;6.846;2022-07-23T01:54:30;23.95;;;13.73;;
60205;SDS011;46072;51.554;6.846;2022-07-23T01:56:58;26.88;;;13.85;;
60205;SDS011;46072;51.554;6.846;2022-07-23T01:59:25;28.52;;;14.90;;
60205;SDS011;46072;51.554;6.846;2022-07-23T02:01:52;33.95;;;15.52;;
60205;SDS011;46072;51.554;6.846;2022-07-23T02:04:19;33.47;;;15.35;;
60205;SDS011;46072;51.554;6.846;2022-07-23T02:06:47;28.45;;;14.48;;
60205;SDS011;46072;51.554;6.846;2022-07-23T02:09:14;33.63;;;16.25;;
60205;SDS011;46072;51.554;6.846;2022-07-23T02:11:40;32.47;;;15.90;;
60205;SDS011;46072;51.554;6.846;2022-07-23T02:14:07;27.88;;;14.73;;
60205;SDS011;46072;51.554;6.846;2022-07-23T02:16:34;27.10;;;14.23;;
60205;SDS011;46072;51.554;6.846;2022-07-23T02:19:01;32.28;;;15.40;;
60205;SDS011;46072;51.554;6.846;2022-07-23T02:21:29;32.38;;;15.98;;
60205;SDS011;46072;51.554;6.846;2022-07-23T02:23:56;33.58;;;15.27;;
60205;SDS011;46072;51.554;6.846;2022-07-23T02:26:23;31.23;;;14.63;;
60205;SDS011;46072;51.554;6.846;2022-07-23T02:28:49;27.02;;;14.07;;
60205;SDS011;46072;51.554;6.846;2022-07-23T02:31:16;29.83;;;14.93;;
60205;SDS011;46072;51.554;6.846;2022-07-23T02:33:43;29.50;;;15.65;;
60205;SDS011;46072;51.554;6.846;2022-07-23T02:36:09;30.77;;;15.82;;
60205;SDS011;46072;51.554;6.846;2022-07-23T02:38:36;35.58;;;15.90;;
60205;SDS011;46072;51.554;6.846;2022-07-23T02:41:02;35.22;;;16.25;;
60205;SDS011;46072;51.554;6.846;2022-07-23T02:43:29;50.72;;;17.67;;
60205;SDS011;46072;51.554;6.846;2022-07-23T02:45:55;40.30;;;17.15;;
60205;SDS011;46072;51.554;6.846;2022-07-23T02:48:22;36.00;;;17.55;;
60205;SDS011;46072;51.554;6.846;2022-07-23T02:50:48;37.92;;;15.85;;
60205;SDS011;46072;51.554;6.846;2022-07-23T02:53:15;35.45;;;17.20;;
60205;SDS011;46072;51.554;6.846;2022-07-23T02:55:44;36.60;;;15.82;;
60205;SDS011;46072;51.554;6.846;2022-07-23T02:58:10;37.85;;;16.92;;
60205;SDS011;46072;51.554;6.846;2022-07-23T03:00:37;35.28;;;15.88;;
60205;SDS011;46072;51.554;6.846;2022-07-23T03:03:03;40.05;;;16.63;;
60205;SDS011;46072;51.554;6.846;2022-07-23T03:05:30;37.65;;;16.05;;
60205;SDS011;46072;51.554;6.846;2022-07-23T03:07:57;35.50;;;16.90;;
60205;SDS011;46072;51.554;6.846;2022-07-23T03:10:23;32.80;;;16.15;;
60205;SDS011;46072;51.554;6.846;2022-07-23T03:12:49;36.33;;;17.38;;
60205;SDS011;46072;51.554;6.846;2022-07-23T03:15:16;32.55;;;16.08;;
60205;SDS011;46072;51.554;6.846;2022-07-23T03:17:42;35.25;;;15.98;;
60205;SDS011;46072;51.554;6.846;2022-07-23T03:20:09;36.05;;;17.10;;
60205;SDS011;46072;51.554;6.846;2022-07-23T03:22:36;37.63;;;16.58;;
60205;SDS011;46072;51.554;6.846;2022-07-23T03:25:02;38.97;;;17.70;;
60205;SDS011;46072;51.554;6.846;2022-07-23T03:27:29;34.38;;;15.60;;
60205;SDS011;46072;51.554;6.846;2022-07-23T03:29:57;37.78;;;15.75;;
60205;SDS011;46072;51.554;6.846;2022-07-23T03:32:25;36.75;;;16.27;;
60205;SDS011;46072;51.554;6.846;2022-07-23T03:34:51;35.95;;;16.08;;
60205;SDS011;46072;51.554;6.846;2022-07-23T03:37:18;36.38;;;17.13;;
60205;SDS011;46072;51.554;6.846;2022-07-23T03:39:47;36.30;;;16.77;;
60205;SDS011;46072;51.554;6.846;2022-07-23T03:42:13;32.35;;;16.25;;
60205;SDS011;46072;51.554;6.846;2022-07-23T03:44:40;37.10;;;17.13;;
60205;SDS011;46072;51.554;6.846;2022-07-23T03:47:06;36.90;;;16.67;;
60205;SDS011;46072;51.554;6.846;2022-07-23T03:49:34;33.90;;;16.85;;
60205;SDS011;46072;51.554;6.846;2022-07-23T03:52:00;30.80;;;15.75;;
60205;SDS011;46072;51.554;6.846;2022-07-23T03:54:27;39.70;;;17.63;;
60205;SDS011;46072;51.554;6.846;2022-07-23T03:56:53;38.63;;;16.45;;
60205;SDS011;46072;51.554;6.846;2022-07-23T03:59:20;41.85;;;17.50;;
60205;SDS011;46072;51.554;6.846;2022-07-23T04:01:49;44.95;;;18.45;;
60205;SDS011;46072;51.554;6.846;2022-07-23T04:04:16;40.97;;;18.10;;
60205;SDS011;46072;51.554;6.846;2022-07-23T04:06:42;35.28;;;17.02;;
60205;SDS011;46072;51.554;6.846;2022-07-23T04:09:09;40.00;;;16.73;;
60205;SDS011;46072;51.554;6.846;2022-07-23T04:11:35;43.80;;;18.13;;
60205;SDS011;46072;51.554;6.846;2022-07-23T04:14:02;36.65;;;17.55;;
60205;SDS011;46072;51.554;6.846;2022-07-23T04:16:29;40.20;;;17.83;;
60205;SDS011;46072;51.554;6.846;2022-07-23T04:18:57;41.40;;;17.75;;
60205;SDS011;46072;51.554;6.846;2022-07-23T04:21:24;40.63;;;18.67;;
60205;SDS011;46072;51.554;6.846;2022-07-23T04:23:51;48.22;;;19.33;;
60205;SDS011;46072;51.554;6.846;2022-07-23T04:26:17;54.25;;;20.65;;
60205;SDS011;46072;51.554;6.846;2022-07-23T04:28:44;49.80;;;19.70;;
60205;SDS011;46072;51.554;6.846;2022-07-23T04:31:10;48.55;;;20.80;;
60205;SDS011;46072;51.554;6.846;2022-07-23T04:33:37;42.17;;;19.58;;
60205;SDS011;46072;51.554;6.846;2022-07-23T04:36:03;50.53;;;20.48;;
60205;SDS011;46072;51.554;6.846;2022-07-23T04:38:30;47.83;;;20.88;;
60205;SDS011;46072;51.554;6.846;2022-07-23T04:40:58;42.85;;;19.95;;
60205;SDS011;46072;51.554;6.846;2022-07-23T04:43:25;55.15;;;22.02;;
60205;SDS011;46072;51.554;6.846;2022-07-23T04:45:51;46.42;;;19.20;;
60205;SDS011;46072;51.554;6.846;2022-07-23T04:48:18;48.30;;;20.17;;
60205;SDS011;46072;51.554;6.846;2022-07-23T04:50:46;50.63;;;22.00;;
60205;SDS011;46072;51.554;6.846;2022-07-23T04:53:12;51.13;;;21.10;;
60205;SDS011;46072;51.554;6.846;2022-07-23T04:55:39;46.50;;;21.08;;
60205;SDS011;46072;51.554;6.846;2022-07-23T04:58:05;55.80;;;23.00;;
60205;SDS011;46072;51.554;6.846;2022-07-23T05:00:32;52.38;;;22.10;;
60205;SDS011;46072;51.554;6.846;2022-07-23T05:02:58;61.42;;;23.27;;
60205;SDS011;46072;51.554;6.846;2022-07-23T05:05:25;59.33;;;23.30;;
60205;SDS011;46072;51.554;6.846;2022-07-23T05:07:51;53.03;;;22.60;;
60205;SDS011;46072;51.554;6.846;2022-07-23T05:10:18;47.25;;;22.27;;
60205;SDS011;46072;51.554;6.846;2022-07-23T05:12:44;38.22;;;21.20;;
60205;SDS011;46072;51.554;6.846;2022-07-23T05:15:11;34.05;;;17.58;;
60205;SDS011;46072;51.554;6.846;2022-07-23T05:17:37;28.70;;;16.77;;
60205;SDS011;46072;51.554;6.846;2022-07-23T05:20:04;28.60;;;15.82;;
60205;SDS011;46072;51.554;6.846;2022-07-23T05:22:31;25.92;;;14.75;;
60205;SDS011;46072;51.554;6.846;2022-07-23T05:24:58;25.70;;;14.55;;
60205;SDS011;46072;51.554;6.846;2022-07-23T05:27:27;29.52;;;14.48;;
60205;SDS011;46072;51.554;6.846;2022-07-23T05:29:54;22.58;;;12.35;;
60205;SDS011;46072;51.554;6.846;2022-07-23T05:32:20;21.13;;;12.23;;
60205;SDS011;46072;51.554;6.846;2022-07-23T05:34:47;23.63;;;12.55;;
60205;SDS011;46072;51.554;6.846;2022-07-23T05:37:13;22.35;;;13.10;;
60205;SDS011;46072;51.554;6.846;2022-07-23T05:39:40;20.95;;;12.38;;
60205;SDS011;46072;51.554;6.846;2022-07-23T05:42:06;18.38;;;11.60;;
60205;SDS011;46072;51.554;6.846;2022-07-23T05:44:33;21.60;;;11.73;;
60205;SDS011;46072;51.554;6.846;2022-07-23T05:47:00;20.75;;;12.05;;
60205;SDS011;46072;51.554;6.846;2022-07-23T05:49:27;19.30;;;11.80;;
60205;SDS011;46072;51.554;6.846;2022-07-23T05:51:56;16.58;;;11.50;;
60205;SDS011;46072;51.554;6.846;2022-07-23T05:54:22;21.02;;;11.57;;
60205;SDS011;46072;51.554;6.846;2022-07-23T05:56:49;21.10;;;11.85;;
60205;SDS011;46072;51.554;6.846;2022-07-23T05:59:16;18.55;;;12.10;;
60205;SDS011;46072;51.554;6.846;2022-07-23T06:01:42;18.75;;;11.52;;
60205;SDS011;46072;51.554;6.846;2022-07-23T06:04:09;21.63;;;12.10;;
60205;SDS011;46072;51.554;6.846;2022-07-23T06:06:36;18.90;;;11.43;;
60205;SDS011;46072;51.554;6.846;2022-07-23T06:09:03;20.13;;;11.18;;
60205;SDS011;46072;51.554;6.846;2022-07-23T06:11:30;18.98;;;11.75;;
60205;SDS011;46072;51.554;6.846;2022-07-23T06:13:57;16.35;;;11.85;;
60205;SDS011;46072;51.554;6.846;2022-07-23T06:16:23;16.92;;;11.18;;
60205;SDS011;46072;51.554;6.846;2022-07-23T06:18:50;20.63;;;12.30;;
60205;SDS011;46072;51.554;6.846;2022-07-23T06:21:16;23.55;;;11.73;;
60205;SDS011;46072;51.554;6.846;2022-07-23T06:24:03;20.77;;;12.32;;
60205;SDS011;46072;51.554;6.846;2022-07-23T06:26:29;17.05;;;10.57;;
60205;SDS011;46072;51.554;6.846;2022-07-23T06:28:56;17.48;;;10.77;;
60205;SDS011;46072;51.554;6.846;2022-07-23T06:31:23;16.00;;;10.18;;
60205;SDS011;46072;51.554;6.846;2022-07-23T06:33:50;17.33;;;9.18;;
60205;SDS011;46072;51.554;6.846;2022-07-23T06:36:16;15.95;;;9.75;;
60205;SDS011;46072;51.554;6.846;2022-07-23T06:38:43;18.70;;;10.98;;
60205;SDS011;46072;51.554;6.846;2022-07-23T06:41:10;18.05;;;10.35;;
60205;SDS011;46072;51.554;6.846;2022-07-23T06:43:36;14.23;;;9.25;;
60205;SDS011;46072;51.554;6.846;2022-07-23T06:46:03;18.27;;;9.43;;
60205;SDS011;46072;51.554;6.846;2022-07-23T06:48:30;15.02;;;10.55;;
60205;SDS011;46072;51.554;6.846;2022-07-23T06:50:56;14.82;;;9.15;;
60205;SDS011;46072;51.554;6.846;2022-07-23T06:53:23;17.98;;;10.10;;
60205;SDS011;46072;51.554;6.846;2022-07-23T06:55:49;15.25;;;8.85;;
60205;SDS011;46072;51.554;6.846;2022-07-23T06:58:16;14.85;;;9.95;;
60205;SDS011;46072;51.554;6.846;2022-07-23T07:00:44;14.23;;;9.85;;
60205;SDS011;46072;51.554;6.846;2022-07-23T07:03:11;16.60;;;9.18;;
60205;SDS011;46072;51.554;6.846;2022-07-23T07:05:37;13.35;;;8.35;;
60205;SDS011;46072;51.554;6.846;2022-07-23T07:08:05;16.83;;;8.05;;
60205;SDS011;46072;51.554;6.846;2022-07-23T07:10:32;14.77;;;7.97;;
60205;SDS011;46072;51.554;6.846;2022-07-23T07:12:58;17.40;;;8.88;;
60205;SDS011;46072;51.554;6.846;2022-07-23T07:15:25;16.10;;;7.72;;
60205;SDS011;46072;51.554;6.846;2022-07-23T07:17:51;12.65;;;7.97;;
60205;SDS011;46072;51.554;6.846;2022-07-23T07:20:18;16.58;;;8.50;;
60205;SDS011;46072;51.554;6.846;2022-07-23T07:22:44;12.25;;;7.50;;
60205;SDS011;46072;51.554;6.846;2022-07-23T07:25:11;15.75;;;8.10;;
60205;SDS011;46072;51.554;6.846;2022-07-23T07:27:37;12.88;;;6.90;;
60205;SDS011;46072;51.554;6.846;2022-07-23T07:30:04;13.43;;;6.35;;
60205;SDS011;46072;51.554;6.846;2022-07-23T07:32:31;14.43;;;6.50;;
60205;SDS011;46072;51.554;6.846;2022-07-23T07:35:22;14.13;;;7.00;;
60205;SDS011;46072;51.554;6.846;2022-07-23T07:37:49;13.63;;;6.60;;
60205;SDS011;46072;51.554;6.846;2022-07-23T07:40:15;14.98;;;7.50;;
60205;SDS011;46072;51.554;6.846;2022-07-23T07:42:45;11.90;;;7.53;;
60205;SDS011;46072;51.554;6.846;2022-07-23T07:45:12;13.80;;;7.35;;
60205;SDS011;46072;51.554;6.846;2022-07-23T07:47:39;10.35;;;6.97;;
60205;SDS011;46072;51.554;6.846;2022-07-23T07:50:05;14.18;;;7.68;;
60205;SDS011;46072;51.554;6.846;2022-07-23T07:52:34;18.55;;;8.50;;
60205;SDS011;46072;51.554;6.846;2022-07-23T07:55:03;14.85;;;7.80;;
60205;SDS011;46072;51.554;6.846;2022-07-23T07:57:30;16.02;;;7.30;;
60205;SDS011;46072;51.554;6.846;2022-07-23T07:59:58;13.32;;;6.38;;
60205;SDS011;46072;51.554;6.846;2022-07-23T08:02:44;14.25;;;7.03;;
60205;SDS011;46072;51.554;6.846;2022-07-23T08:05:26;12.80;;;6.47;;
60205;SDS011;46072;51.554;6.846;2022-07-23T08:07:54;12.57;;;6.05;;
60205;SDS011;46072;51.554;6.846;2022-07-23T08:10:22;13.48;;;7.00;;
60205;SDS011;46072;51.554;6.846;2022-07-23T08:12:50;14.20;;;7.70;;
60205;SDS011;46072;51.554;6.846;2022-07-23T08:15:20;13.00;;;7.50;;
60205;SDS011;46072;51.554;6.846;2022-07-23T08:17:47;15.15;;;6.57;;
60205;SDS011;46072;51.554;6.846;2022-07-23T08:20:16;14.20;;;5.82;;
60205;SDS011;46072;51.554;6.846;2022-07-23T08:23:17;13.35;;;6.78;;
60205;SDS011;46072;51.554;6.846;2022-07-23T08:25:37;10.88;;;6.45;;
60205;SDS011;46072;51.554;6.846;2022-07-23T08:28:05;12.75;;;6.15;;
60205;SDS011;46072;51.554;6.846;2022-07-23T08:30:34;15.27;;;5.70;;
60205;SDS011;46072;51.554;6.846;2022-07-23T08:33:05;12.10;;;6.35;;
60205;SDS011;46072;51.554;6.846;2022-07-23T08:35:40;14.05;;;7.05;;
60205;SDS011;46072;51.554;6.846;2022-07-23T08:38:10;14.13;;;6.63;;
60205;SDS011;46072;51.554;6.846;2022-07-23T08:40:41;14.85;;;6.88;;
60205;SDS011;46072;51.554;6.846;2022-07-23T08:43:10;12.85;;;6.85;;
60205;SDS011;46072;51.554;6.846;2022-07-23T08:45:38;12.80;;;6.32;;
60205;SDS011;46072;51.554;6.846;2022-07-23T08:48:08;12.57;;;5.97;;
60205;SDS011;46072;51.554;6.846;2022-07-23T08:50:41;12.43;;;5.70;;
60205;SDS011;46072;51.554;6.846;2022-07-23T08:53:09;13.48;;;6.05;;
60205;SDS011;46072;51.554;6.846;2022-07-23T08:55:36;10.93;;;5.45;;
60205;SDS011;46072;51.554;6.846;2022-07-23T08:58:02;14.73;;;6.47;;
60205;SDS011;46072;51.554;6.846;2022-07-23T09:00:30;9.57;;;5.22;;
60205;SDS011;46072;51.554;6.846;2022-07-23T09:02:57;15.38;;;5.60;;
60205;SDS011;46072;51.554;6.846;2022-07-23T09:05:24;12.85;;;6.07;;
60205;SDS011;46072;51.554;6.846;2022-07-23T09:08:10;11.30;;;5.15;;
60205;SDS011;46072;51.554;6.846;2022-07-23T09:13:33;9.48;;;5.20;;
60205;SDS011;46072;51.554;6.846;2022-07-23T09:16:11;9.07;;;4.95;;
60205;SDS011;46072;51.554;6.846;2022-07-23T09:18:49;7.95;;;4.60;;
60205;SDS011;46072;51.554;6.846;2022-07-23T09:21:29;9.27;;;4.70;;
60205;SDS011;46072;51.554;6.846;2022-07-23T09:23:58;10.32;;;4.60;;
60205;SDS011;46072;51.554;6.846;2022-07-23T09:26:31;9.77;;;4.57;;
60205;SDS011;46072;51.554;6.846;2022-07-23T09:29:18;12.05;;;5.95;;
60205;SDS011;46072;51.554;6.846;2022-07-23T09:31:51;13.98;;;5.03;;
60205;SDS011;46072;51.554;6.846;2022-07-23T09:34:34;10.35;;;4.70;;
60205;SDS011;46072;51.554;6.846;2022-07-23T09:37:08;9.23;;;5.43;;
60205;SDS011;46072;51.554;6.846;2022-07-23T09:39:36;11.13;;;5.30;;
60205;SDS011;46072;51.554;6.846;2022-07-23T09:42:14;8.95;;;4.70;;
60205;SDS011;46072;51.554;6.846;2022-07-23T09:44:42;8.30;;;4.25;;
60205;SDS011;46072;51.554;6.846;2022-07-23T09:47:10;9.10;;;3.60;;
60205;SDS011;46072;51.554;6.846;2022-07-23T09:49:39;8.00;;;4.07;;
60205;SDS011;46072;51.554;6.846;2022-07-23T09:52:06;7.87;;;3.80;;
60205;SDS011;46072;51.554;6.846;2022-07-23T09:54:34;7.43;;;4.00;;
60205;SDS011;46072;51.554;6.846;2022-07-23T09:57:04;10.43;;;3.78;;
60205;SDS011;46072;51.554;6.846;2022-07-23T09:59:33;8.85;;;3.92;;
60205;SDS011;46072;51.554;6.846;2022-07-23T10:02:02;6.50;;;3.70;;
60205;SDS011;46072;51.554;6.846;2022-07-23T10:04:30;8.75;;;4.28;;
60205;SDS011;46072;51.554;6.846;2022-07-23T10:06:58;9.82;;;4.20;;
60205;SDS011;46072;51.554;6.846;2022-07-23T10:09:28;9.10;;;4.40;;
60205;SDS011;46072;51.554;6.846;2022-07-23T10:12:00;9.07;;;4.22;;
60205;SDS011;46072;51.554;6.846;2022-07-23T10:14:48;8.23;;;3.83;;
60205;SDS011;46072;51.554;6.846;2022-07-23T10:17:16;6.80;;;3.47;;
60205;SDS011;46072;51.554;6.846;2022-07-23T10:19:42;7.38;;;3.67;;
60205;SDS011;46072;51.554;6.846;2022-07-23T10:22:10;7.22;;;3.35;;
60205;SDS011;46072;51.554;6.846;2022-07-23T10:35:53;8.82;;;3.75;;
60205;SDS011;46072;51.554;6.846;2022-07-23T10:38:35;8.20;;;3.50;;
60205;SDS011;46072;51.554;6.846;2022-07-23T10:41:06;7.82;;;3.78;;
60205;SDS011;46072;51.554;6.846;2022-07-23T10:43:35;5.72;;;3.50;;
60205;SDS011;46072;51.554;6.846;2022-07-23T10:46:20;10.07;;;4.13;;
60205;SDS011;46072;51.554;6.846;2022-07-23T10:57:28;6.55;;;3.25;;
60205;SDS011;46072;51.554;6.846;2022-07-23T11:02:49;5.63;;;2.90;;
60205;SDS011;46072;51.554;6.846;2022-07-23T11:05:19;8.35;;;3.00;;
60205;SDS011;46072;51.554;6.846;2022-07-23T11:16:14;4.50;;;2.53;;
60205;SDS011;46072;51.554;6.846;2022-07-23T11:29:37;5.20;;;2.80;;
60205;SDS011;46072;51.554;6.846;2022-07-23T11:32:20;6.57;;;2.55;;
60205;SDS011;46072;51.554;6.846;2022-07-23T11:34:50;6.60;;;2.70;;
60205;SDS011;46072;51.554;6.846;2022-07-23T11:37:37;4.63;;;2.58;;
60205;SDS011;46072;51.554;6.846;2022-07-23T11:40:07;6.40;;;2.75;;
60205;SDS011;46072;51.554;6.846;2022-07-23T11:42:36;6.15;;;3.00;;
60205;SDS011;46072;51.554;6.846;2022-07-23T11:45:06;4.68;;;2.58;;
60205;SDS011;46072;51.554;6.846;2022-07-23T11:47:34;6.50;;;2.83;;
60205;SDS011;46072;51.554;6.846;2022-07-23T11:50:04;5.65;;;2.70;;
60205;SDS011;46072;51.554;6.846;2022-07-23T11:52:32;8.57;;;2.90;;
60205;SDS011;46072;51.554;6.846;2022-07-23T11:55:01;7.72;;;3.45;;
60205;SDS011;46072;51.554;6.846;2022-07-23T11:57:34;6.63;;;2.90;;
60205;SDS011;46072;51.554;6.846;2022-07-23T12:00:07;5.68;;;3.20;;
60205;SDS011;46072;51.554;6.846;2022-07-23T12:02:44;4.88;;;2.92;;
60205;SDS011;46072;51.554;6.846;2022-07-23T12:05:21;5.70;;;2.88;;
60205;SDS011;46072;51.554;6.846;2022-07-23T12:07:53;5.90;;;2.88;;
60205;SDS011;46072;51.554;6.846;2022-07-23T12:10:22;6.53;;;3.33;;
60205;SDS011;46072;51.554;6.846;2022-07-23T12:12:53;7.30;;;3.38;;
60205;SDS011;46072;51.554;6.846;2022-07-23T12:15:25;7.63;;;3.38;;
60205;SDS011;46072;51.554;6.846;2022-07-23T12:17:55;7.43;;;2.97;;
60205;SDS011;46072;51.554;6.846;2022-07-23T12:20:22;6.95;;;2.92;;
60205;SDS011;46072;51.554;6.846;2022-07-23T12:22:57;8.07;;;2.90;;
60205;SDS011;46072;51.554;6.846;2022-07-23T12:25:36;6.10;;;2.65;;
60205;SDS011;46072;51.554;6.846;2022-07-23T12:28:09;4.75;;;2.70;;
60205;SDS011;46072;51.554;6.846;2022-07-23T12:30:47;7.18;;;3.00;;
60205;SDS011;46072;51.554;6.846;2022-07-23T12:36:40;7.68;;;3.40;;
60205;SDS011;46072;51.554;6.846;2022-07-23T12:39:07;4.78;;;2.85;;
60205;SDS011;46072;51.554;6.846;2022-07-23T12:41:52;8.73;;;3.10;;
60205;SDS011;46072;51.554;6.846;2022-07-23T12:44:19;5.50;;;2.90;;
60205;SDS011;46072;51.554;6.846;2022-07-23T12:48:02;6.32;;;2.80;;
60205;SDS011;46072;51.554;6.846;2022-07-23T12:51:04;4.47;;;2.97;;
60205;SDS011;46072;51.554;6.846;2022-07-23T12:53:43;6.45;;;2.90;;
60205;SDS011;46072;51.554;6.846;2022-07-23T12:56:10;5.25;;;2.63;;
60205;SDS011;46072;51.554;6.846;2022-07-23T12:58:47;5.50;;;2.60;;
60205;SDS011;46072;51.554;6.846;2022-07-23T13:03:59;4.95;;;2.97;;
60205;SDS011;46072;51.554;6.846;2022-07-23T13:09:13;7.55;;;2.95;;
60205;SDS011;46072;51.554;6.846;2022-07-23T13:11:43;7.32;;;3.40;;
60205;SDS011;46072;51.554;6.846;2022-07-23T13:14:13;7.82;;;3.08;;
60205;SDS011;46072;51.554;6.846;2022-07-23T13:16:41;7.82;;;2.97;;
60205;SDS011;46072;51.554;6.846;2022-07-23T13:19:11;7.35;;;3.45;;
60205;SDS011;46072;51.554;6.846;2022-07-23T13:21:38;10.85;;;3.00;;
60205;SDS011;46072;51.554;6.846;2022-07-23T13:24:07;5.57;;;2.88;;
60205;SDS011;46072;51.554;6.846;2022-07-23T13:26:35;7.28;;;2.95;;
60205;SDS011;46072;51.554;6.846;2022-07-23T13:29:03;5.78;;;2.95;;
60205;SDS011;46072;51.554;6.846;2022-07-23T13:31:34;6.10;;;3.05;;
60205;SDS011;46072;51.554;6.846;2022-07-23T13:34:05;4.57;;;2.60;;
60205;SDS011;46072;51.554;6.846;2022-07-23T13:36:35;5.90;;;3.47;;
60205;SDS011;46072;51.554;6.846;2022-07-23T13:39:02;6.50;;;2.95;;
60205;SDS011;46072;51.554;6.846;2022-07-23T13:41:32;8.15;;;3.15;;
60205;SDS011;46072;51.554;6.846;2022-07-23T13:43:59;7.32;;;3.00;;
60205;SDS011;46072;51.554;6.846;2022-07-23T13:46:29;6.63;;;2.83;;
60205;SDS011;46072;51.554;6.846;2022-07-23T13:48:56;6.07;;;3.28;;
60205;SDS011;46072;51.554;6.846;2022-07-23T13:51:25;5.30;;;2.80;;
60205;SDS011;46072;51.554;6.846;2022-07-23T13:53:54;7.15;;;3.15;;
60205;SDS011;46072;51.554;6.846;2022-07-23T13:56:21;7.15;;;2.90;;
60205;SDS011;46072;51.554;6.846;2022-07-23T13:58:50;5.75;;;3.00;;
60205;SDS011;46072;51.554;6.846;2022-07-23T14:01:17;6.35;;;3.45;;
60205;SDS011;46072;51.554;6.846;2022-07-23T14:03:43;5.22;;;3.20;;
60205;SDS011;46072;51.554;6.846;2022-07-23T14:06:11;5.22;;;3.10;;
60205;SDS011;46072;51.554;6.846;2022-07-23T14:08:41;7.28;;;3.10;;
60205;SDS011;46072;51.554;6.846;2022-07-23T14:11:09;5.82;;;3.15;;
60205;SDS011;46072;51.554;6.846;2022-07-23T14:13:37;4.65;;;3.00;;
60205;SDS011;46072;51.554;6.846;2022-07-23T14:16:03;7.05;;;3.55;;
60205;SDS011;46072;51.554;6.846;2022-07-23T14:18:30;6.15;;;3.15;;
60205;SDS011;46072;51.554;6.846;2022-07-23T14:20:59;6.25;;;3.38;;
60205;SDS011;46072;51.554;6.846;2022-07-23T14:23:27;8.73;;;3.33;;
60205;SDS011;46072;51.554;6.846;2022-07-23T14:25:55;7.50;;;3.40;;
60205;SDS011;46072;51.554;6.846;2022-07-23T14:28:23;5.68;;;3.25;;
60205;SDS011;46072;51.554;6.846;2022-07-23T14:30:50;5.63;;;3.25;;
60205;SDS011;46072;51.554;6.846;2022-07-23T14:33:16;6.82;;;3.42;;
60205;SDS011;46072;51.554;6.846;2022-07-23T14:35:46;7.60;;;3.40;;
60205;SDS011;46072;51.554;6.846;2022-07-23T14:38:13;4.70;;;3.00;;
60205;SDS011;46072;51.554;6.846;2022-07-23T14:40:40;6.25;;;3.40;;
60205;SDS011;46072;51.554;6.846;2022-07-23T14:43:07;4.90;;;3.13;;
60205;SDS011;46072;51.554;6.846;2022-07-23T14:45:37;7.30;;;3.15;;
60205;SDS011;46072;51.554;6.846;2022-07-23T14:48:04;6.30;;;3.00;;
60205;SDS011;46072;51.554;6.846;2022-07-23T14:50:31;5.43;;;3.15;;
60205;SDS011;46072;51.554;6.846;2022-07-23T14:52:58;6.18;;;2.97;;
60205;SDS011;46072;51.554;6.846;2022-07-23T14:55:25;5.75;;;3.50;;
60205;SDS011;46072;51.554;6.846;2022-07-23T14:57:52;9.05;;;4.32;;
60205;SDS011;46072;51.554;6.846;2022-07-23T15:00:22;6.90;;;3.25;;
60205;SDS011;46072;51.554;6.846;2022-07-23T15:02:49;7.90;;;3.67;;
60205;SDS011;46072;51.554;6.846;2022-07-23T15:05:20;6.15;;;3.10;;
60205;SDS011;46072;51.554;6.846;2022-07-23T15:07:47;6.00;;;3.53;;
60205;SDS011;46072;51.554;6.846;2022-07-23T15:10:14;7.28;;;3.30;;
60205;SDS011;46072;51.554;6.846;2022-07-23T15:12:47;7.85;;;3.80;;
60205;SDS011;46072;51.554;6.846;2022-07-23T15:15:15;9.95;;;4.25;;
60205;SDS011;46072;51.554;6.846;2022-07-23T15:17:44;9.95;;;4.05;;
60205;SDS011;46072;51.554;6.846;2022-07-23T15:20:11;9.25;;;4.03;;
60205;SDS011;46072;51.554;6.846;2022-07-23T15:22:41;7.45;;;3.60;;
60205;SDS011;46072;51.554;6.846;2022-07-23T15:25:08;6.03;;;3.42;;
60205;SDS011;46072;51.554;6.846;2022-07-23T15:27:37;6.03;;;3.00;;
60205;SDS011;46072;51.554;6.846;2022-07-23T15:30:04;6.43;;;3.58;;
60205;SDS011;46072;51.554;6.846;2022-07-23T15:32:33;6.28;;;3.20;;
60205;SDS011;46072;51.554;6.846;2022-07-23T15:35:00;8.88;;;4.10;;
60205;SDS011;46072;51.554;6.846;2022-07-23T15:37:28;5.97;;;3.30;;